Time;durP1;ratioP1;P1;durP2;ratioP2;P2;SDS_P1;SDS_P2;PMS_P1;PMS_P2;Temp;Humidity;BMP_temperature;BMP_pressure;BME280_temperature;BME280_humidity;BME280_pressure;Samples;Min_cycle;Max_cycle;Signal;HPM_P1;HPM_P2
2022/01/03 00:01:20;;;;;;;14.38;1.63;;;8.10;99.90;;;;;;5078354;28;20075;-47
2022/01/03 00:03:47;;;;;;;10.10;1.42;;;8.00;99.90;;;;;;5078429;28;20077;-45
2022/01/03 00:06:14;;;;;;;13.43;1.50;;;8.00;99.90;;;;;;5085168;28;20039;-44
2022/01/03 00:08:45;;;;;;;11.18;2.22;;;8.20;99.90;;;;;;5080003;28;20048;-44
2022/01/03 00:11:12;;;;;;;14.25;1.90;;;8.20;99.90;;;;;;5075150;28;20047;-49
2022/01/03 00:13:43;;;;;;;15.77;2.15;;;8.30;99.90;;;;;;5080041;28;20042;-45
2022/01/03 00:16:09;;;;;;;11.32;1.95;;;8.10;99.90;;;;;;5074369;28;20036;-46
2022/01/03 00:18:35;;;;;;;14.15;1.95;;;8.30;99.90;;;;;;5079451;28;20057;-45
2022/01/03 00:21:01;;;;;;;15.07;1.92;;;8.20;99.90;;;;;;5074591;28;20032;-50
2022/01/03 00:23:29;;;;;;;14.27;2.63;;;8.30;99.90;;;;;;5074490;28;20120;-49
2022/01/03 00:26:06;;;;;;;21.10;3.25;;;8.30;99.90;;;;;;5067100;28;20072;-45
2022/01/03 00:28:34;;;;;;;13.98;2.90;;;8.30;99.90;;;;;;5062159;28;20069;-45
2022/01/03 00:31:00;;;;;;;19.58;2.63;;;8.20;99.90;;;;;;5074195;28;20040;-46
2022/01/03 00:33:27;;;;;;;14.82;3.13;;;8.20;99.90;;;;;;5067210;28;20032;-47
2022/01/03 00:35:59;;;;;;;13.90;2.13;;;8.30;99.90;;;;;;5075887;28;20085;-46
2022/01/03 00:38:32;;;;;;;20.30;3.25;;;8.90;99.90;;;;;;5068667;28;20036;-46
2022/01/03 00:41:01;;;;;;;25.73;3.75;;;8.50;99.90;;;;;;5084037;28;20044;-45
2022/01/03 00:43:29;;;;;;;19.02;3.05;;;8.40;99.90;;;;;;5075134;28;20051;-46
2022/01/03 00:45:56;;;;;;;19.13;2.92;;;8.40;99.90;;;;;;5062411;28;20047;-47
2022/01/03 00:48:24;;;;;;;20.63;2.40;;;8.80;99.90;;;;;;5077590;28;20040;-46
2022/01/03 00:50:50;;;;;;;20.00;2.60;;;8.40;99.90;;;;;;5063986;28;20044;-45
2022/01/03 00:53:16;;;;;;;17.08;2.83;;;8.10;99.90;;;;;;5069136;28;20035;-44
2022/01/03 00:55:54;;;;;;;21.25;2.70;;;8.30;99.90;;;;;;5072412;28;20075;-45
2022/01/03 00:58:22;;;;;;;22.30;4.40;;;8.30;99.90;;;;;;5067293;28;20405;-45
2022/01/03 01:00:54;;;;;;;24.02;3.72;;;8.20;99.90;;;;;;5079336;28;20127;-46
2022/01/03 01:03:27;;;;;;;26.02;4.00;;;8.20;99.90;;;;;;5082923;28;20048;-49
2022/01/03 01:05:55;;;;;;;22.42;3.25;;;8.30;99.90;;;;;;5083282;28;20519;-44
2022/01/03 01:08:23;;;;;;;24.75;2.88;;;8.40;99.90;;;;;;5083422;28;20055;-48
2022/01/03 01:10:51;;;;;;;18.63;3.17;;;8.20;99.90;;;;;;5080040;28;20092;-46
2022/01/03 01:13:20;;;;;;;24.70;3.75;;;8.20;99.90;;;;;;5072552;28;20043;-48
2022/01/03 01:15:46;;;;;;;28.58;3.42;;;8.20;99.90;;;;;;5066007;28;20141;-46
2022/01/03 01:18:12;;;;;;;19.27;3.38;;;8.30;99.90;;;;;;5073904;28;20127;-45
2022/01/03 01:20:39;;;;;;;18.08;2.50;;;8.30;99.90;;;;;;5061857;28;20044;-50
2022/01/03 01:23:06;;;;;;;20.77;2.97;;;8.30;99.90;;;;;;5077279;28;20033;-46
2022/01/03 01:28:05;;;;;;;27.50;2.78;;;8.30;99.90;;;;;;5081176;28;20043;-45
2022/01/03 01:30:33;;;;;;;24.63;3.58;;;8.40;99.90;;;;;;5082337;28;20400;-46
2022/01/03 01:33:03;;;;;;;22.98;2.80;;;8.30;99.90;;;;;;5070806;28;20488;-46
2022/01/03 01:35:53;;;;;;;20.40;3.60;;;8.40;99.90;;;;;;5082032;28;20036;-46
2022/01/03 01:38:21;;;;;;;31.55;4.00;;;8.50;99.90;;;;;;5082172;28;20508;-45
2022/01/03 01:40:53;;;;;;;26.80;3.80;;;8.60;99.90;;;;;;5076620;28;20052;-47
2022/01/03 01:43:32;;;;;;;25.75;4.40;;;8.50;99.90;;;;;;5061991;28;20412;-46
2022/01/03 01:45:59;;;;;;;27.67;3.92;;;8.40;99.90;;;;;;5082227;28;20090;-45
2022/01/03 01:48:27;;;;;;;23.15;4.63;;;9.40;99.90;;;;;;5082381;28;20036;-46
2022/01/03 01:50:55;;;;;;;25.05;3.83;;;9.60;99.90;;;;;;5069031;28;20489;-45
2022/01/03 01:53:23;;;;;;;26.92;3.50;;;8.50;99.90;;;;;;5073076;28;20040;-46
2022/01/03 01:55:54;;;;;;;27.20;3.38;;;9.80;99.90;;;;;;5067153;28;20102;-47
2022/01/03 01:58:36;;;;;;;25.05;3.58;;;8.60;99.90;;;;;;5080967;28;20035;-46
2022/01/03 02:01:05;;;;;;;27.35;4.10;;;8.40;99.90;;;;;;5075293;28;20045;-44
2022/01/03 02:03:40;;;;;;;32.10;3.92;;;9.30;99.90;;;;;;5073535;28;20137;-45
2022/01/03 02:06:35;;;;;;;21.52;3.22;;;8.90;99.90;;;;;;5070878;28;20036;-47
2022/01/03 02:09:09;;;;;;;31.92;4.38;;;8.70;99.90;;;;;;5080465;28;20036;-46
2022/01/03 02:11:51;;;;;;;26.23;4.05;;;8.60;99.90;;;;;;5063060;28;20051;-48
2022/01/03 02:14:18;;;;;;;;;;;9.50;99.90;;;;;;5074327;28;20032;-46
2022/01/03 02:16:44;;;;;;;24.27;3.45;;;8.60;99.90;;;;;;5068557;28;19924;-47
2022/01/03 02:19:11;;;;;;;28.95;3.55;;;8.60;99.90;;;;;;5080009;28;20040;-45
2022/01/03 02:21:37;;;;;;;32.70;3.70;;;8.50;99.90;;;;;;5080505;28;20062;-45
2022/01/03 02:24:04;;;;;;;17.83;3.50;;;8.60;99.90;;;;;;5062456;28;20036;-46
2022/01/03 02:26:32;;;;;;;26.15;4.63;;;8.50;99.90;;;;;;5072467;28;20405;-48
2022/01/03 02:29:00;;;;;;;27.70;4.03;;;9.50;99.90;;;;;;5069854;28;20063;-45
2022/01/03 02:31:26;;;;;;;22.27;5.20;;;8.60;99.90;;;;;;5077880;28;20036;-45
2022/01/03 02:33:52;;;;;;;16.75;3.10;;;8.60;99.90;;;;;;5076154;28;20106;-45
2022/01/03 02:36:19;;;;;;;20.67;3.53;;;8.50;99.90;;;;;;5065438;28;20452;-50
2022/01/03 02:38:46;;;;;;;25.48;3.80;;;8.40;99.90;;;;;;5071110;28;20082;-45
2022/01/03 02:41:12;;;;;;;30.17;5.43;;;8.50;99.90;;;;;;5064292;28;20028;-44
2022/01/03 02:43:38;;;;;;;25.42;3.30;;;8.50;99.90;;;;;;5081465;28;20036;-45
2022/01/03 02:46:04;;;;;;;25.50;3.45;;;8.20;99.90;;;;;;5071861;28;20404;-49
2022/01/03 02:48:30;;;;;;;33.00;3.85;;;9.60;99.90;;;;;;5064427;28;20318;-45
2022/01/03 02:50:56;;;;;;;22.77;3.75;;;8.70;99.90;;;;;;5064293;28;20048;-45
2022/01/03 02:53:22;;;;;;;28.48;4.07;;;9.00;99.90;;;;;;5071632;28;20047;-45
2022/01/03 02:55:49;;;;;;;27.85;4.35;;;8.40;99.90;;;;;;5081490;28;20462;-46
2022/01/03 02:58:14;;;;;;;29.95;5.55;;;9.40;99.90;;;;;;5066582;28;20063;-46
2022/01/03 03:00:48;;;;;;;24.50;4.28;;;8.30;99.90;;;;;;5078040;28;20074;-46
2022/01/03 03:03:16;;;;;;;27.50;3.88;;;8.80;99.90;;;;;;5076399;28;20394;-46
2022/01/03 03:05:43;;;;;;;26.67;3.88;;;8.80;99.90;;;;;;5068924;28;20414;-46
2022/01/03 03:08:12;;;;;;;26.20;4.35;;;8.20;99.90;;;;;;5076632;28;20047;-45
2022/01/03 03:10:38;;;;;;;31.83;4.30;;;8.20;99.90;;;;;;5079356;28;20119;-46
2022/01/03 03:13:04;;;;;;;28.77;3.92;;;8.20;99.90;;;;;;5075522;28;20123;-46
2022/01/03 03:15:30;;;;;;;25.48;4.70;;;8.20;99.90;;;;;;5069423;28;20468;-45
2022/01/03 03:17:56;;;;;;;34.40;4.20;;;8.10;99.90;;;;;;5073245;28;20025;-45
2022/01/03 03:20:28;;;;;;;28.63;3.80;;;8.20;99.90;;;;;;5080614;28;20871;-48
2022/01/03 03:22:55;;;;;;;29.10;3.83;;;8.10;99.90;;;;;;5073474;28;20044;-49
2022/01/03 03:25:27;;;;;;;27.95;3.85;;;8.20;99.90;;;;;;5066597;28;20045;-47
2022/01/03 03:28:00;;;;;;;23.20;4.63;;;8.20;99.90;;;;;;5069481;28;20036;-46
2022/01/03 03:30:36;;;;;;;23.35;3.95;;;8.00;99.90;;;;;;5068426;28;20046;-46
2022/01/03 03:33:12;;;;;;;35.45;5.32;;;8.10;99.90;;;;;;5074293;28;20042;-46
2022/01/03 03:35:39;;;;;;;27.63;3.50;;;8.10;99.90;;;;;;5079817;28;20039;-45
2022/01/03 03:38:05;;;;;;;35.67;4.35;;;8.10;99.90;;;;;;5064773;28;20370;-47
2022/01/03 03:40:31;;;;;;;25.05;4.28;;;8.00;99.90;;;;;;5071341;28;20035;-45
2022/01/03 03:42:56;;;;;;;35.45;4.38;;;8.10;99.90;;;;;;5070218;28;20051;-47
2022/01/03 03:45:23;;;;;;;29.13;5.35;;;8.00;99.90;;;;;;5072214;28;20436;-46
2022/01/03 03:47:49;;;;;;;30.75;5.18;;;8.00;99.90;;;;;;5080037;28;20044;-44
2022/01/03 03:50:17;;;;;;;35.78;5.72;;;7.90;99.90;;;;;;5065399;28;20263;-46
2022/01/03 03:52:43;;;;;;;26.25;4.05;;;9.20;99.90;;;;;;5066872;28;20051;-49
2022/01/03 03:55:10;;;;;;;28.98;4.95;;;8.00;99.90;;;;;;5059144;28;20580;-46
2022/01/03 03:57:36;;;;;;;30.77;4.78;;;8.00;99.90;;;;;;5069327;28;20043;-46
2022/01/03 04:00:04;;;;;;;29.00;4.60;;;7.90;99.90;;;;;;5066417;28;20047;-45
2022/01/03 04:02:30;;;;;;;33.25;4.50;;;8.10;99.90;;;;;;5076309;28;20032;-47
2022/01/03 04:05:00;;;;;;;31.52;5.10;;;8.00;99.90;;;;;;5073069;28;20097;-44
2022/01/03 04:07:26;;;;;;;31.70;4.75;;;8.00;99.90;;;;;;5064455;28;20041;-49
2022/01/03 04:09:51;;;;;;;27.38;5.10;;;8.00;99.90;;;;;;5077302;28;20055;-47
2022/01/03 04:12:17;;;;;;;26.10;4.57;;;8.10;99.90;;;;;;5082743;28;20101;-45
2022/01/03 04:14:43;;;;;;;36.67;4.40;;;8.10;99.90;;;;;;5064436;28;20044;-47
2022/01/03 04:17:09;;;;;;;26.15;5.05;;;8.10;99.90;;;;;;5075087;28;20067;-45
2022/01/03 04:19:35;;;;;;;32.88;4.38;;;8.10;99.90;;;;;;5075175;28;20058;-45
2022/01/03 04:22:01;;;;;;;31.90;4.40;;;8.00;99.90;;;;;;5081653;28;20040;-44
2022/01/03 04:24:27;;;;;;;35.80;5.88;;;8.00;99.90;;;;;;5083222;28;20151;-44
2022/01/03 04:26:52;;;;;;;26.98;3.83;;;8.10;99.90;;;;;;5074767;28;21347;-46
2022/01/03 04:29:20;;;;;;;33.42;5.25;;;8.10;99.90;;;;;;5072710;28;20028;-44
2022/01/03 04:31:46;;;;;;;29.33;4.40;;;8.10;99.90;;;;;;5066887;28;20044;-44
2022/01/03 04:34:13;;;;;;;31.92;4.57;;;7.80;99.90;;;;;;5075231;28;20302;-44
2022/01/03 04:36:41;;;;;;;34.80;5.63;;;7.90;99.90;;;;;;5076844;28;20047;-50
2022/01/03 04:39:08;;;;;;;33.13;5.68;;;8.00;99.90;;;;;;5070922;28;20827;-46
2022/01/03 04:41:34;;;;;;;36.08;5.82;;;7.90;99.90;;;;;;5068907;28;20036;-46
2022/01/03 04:44:00;;;;;;;31.25;5.05;;;7.80;99.90;;;;;;5069960;28;20043;-46
2022/01/03 04:46:26;;;;;;;34.10;6.10;;;8.00;99.90;;;;;;5083055;28;20044;-44
2022/01/03 04:48:52;;;;;;;34.58;5.55;;;7.90;99.90;;;;;;5071178;28;20089;-49
2022/01/03 04:51:18;;;;;;;40.63;5.65;;;7.80;99.90;;;;;;5073939;28;20044;-44
2022/01/03 04:53:46;;;;;;;31.42;5.80;;;8.00;99.90;;;;;;5071493;28;20429;-46
2022/01/03 04:56:14;;;;;;;33.47;4.72;;;7.90;99.90;;;;;;5074845;28;20025;-43
2022/01/03 04:58:40;;;;;;;28.67;5.07;;;8.00;99.90;;;;;;5066904;28;20075;-45
2022/01/03 05:01:08;;;;;;;24.77;4.72;;;8.70;99.90;;;;;;5073499;28;20047;-43
2022/01/03 05:03:34;;;;;;;38.35;4.03;;;8.10;99.90;;;;;;5062676;28;20539;-48
2022/01/03 05:06:01;;;;;;;29.38;4.30;;;8.00;99.90;;;;;;5077210;28;20061;-46
2022/01/03 05:08:29;;;;;;;32.90;5.72;;;8.00;99.90;;;;;;5068405;28;20745;-48
2022/01/03 05:10:55;;;;;;;39.03;6.22;;;7.90;99.90;;;;;;5072087;28;20040;-50
2022/01/03 05:13:21;;;;;;;31.63;6.18;;;8.00;99.90;;;;;;5068474;28;20451;-44
2022/01/03 05:15:47;;;;;;;36.65;6.43;;;7.70;99.90;;;;;;5052168;28;20101;-45
2022/01/03 05:18:13;;;;;;;31.05;4.63;;;7.90;99.90;;;;;;5068326;28;20032;-45
2022/01/03 05:20:39;;;;;;;31.90;4.78;;;7.80;99.90;;;;;;5082379;28;20356;-44
2022/01/03 05:23:08;;;;;;;30.95;5.97;;;7.70;99.90;;;;;;5068879;28;20617;-45
2022/01/03 05:25:34;;;;;;;34.92;5.45;;;7.90;99.90;;;;;;5074727;28;20124;-46
2022/01/03 05:28:00;;;;;;;34.33;6.28;;;7.80;99.90;;;;;;5083886;28;20028;-46
2022/01/03 05:30:25;;;;;;;33.40;4.60;;;7.90;99.90;;;;;;5083286;28;20416;-44
2022/01/03 05:32:51;;;;;;;32.92;5.95;;;;;;;;;;5073279;28;20400;-46
2022/01/03 05:35:17;;;;;;;36.25;5.35;;;8.00;99.90;;;;;;5080935;28;20066;-44
2022/01/03 05:37:43;;;;;;;36.67;6.50;;;7.90;99.90;;;;;;5066063;28;20040;-45
2022/01/03 05:40:09;;;;;;;37.08;4.93;;;8.00;99.90;;;;;;5077996;28;20046;-49
2022/01/03 05:42:35;;;;;;;29.60;5.28;;;7.90;99.90;;;;;;5081184;28;20075;-44
2022/01/03 05:45:00;;;;;;;33.65;4.78;;;7.90;99.90;;;;;;5064157;28;20064;-46
2022/01/03 05:47:28;;;;;;;35.00;5.63;;;7.90;99.90;;;;;;5082464;28;20036;-44
2022/01/03 05:49:55;;;;;;;34.95;5.38;;;8.10;99.90;;;;;;5073976;28;20128;-44
2022/01/03 05:52:20;;;;;;;38.42;6.60;;;7.80;99.90;;;;;;5077893;28;20106;-46
2022/01/03 05:54:46;;;;;;;29.13;4.93;;;7.80;99.90;;;;;;5082928;28;20036;-44
2022/01/03 05:57:13;;;;;;;38.80;6.40;;;7.90;99.90;;;;;;5063449;28;20094;-45
2022/01/03 05:59:39;;;;;;;32.13;5.43;;;7.90;99.90;;;;;;5080455;28;20119;-45
2022/01/03 06:02:05;;;;;;;28.90;4.90;;;8.00;99.90;;;;;;5070480;28;20301;-44
2022/01/03 06:07:15;;;;;;;32.75;4.95;;;9.60;99.90;;;;;;5077304;28;20043;-46
2022/01/03 06:09:41;;;;;;;36.28;5.10;;;8.10;99.90;;;;;;5078553;28;20373;-47
2022/01/03 06:12:07;;;;;;;29.13;4.50;;;8.00;99.90;;;;;;5070148;28;20127;-43
2022/01/03 06:14:33;;;;;;;33.22;5.78;;;8.00;99.90;;;;;;5069082;28;20605;-45
2022/01/03 06:16:59;;;;;;;39.33;5.88;;;8.00;99.90;;;;;;5061172;28;20047;-45
2022/01/03 06:19:26;;;;;;;31.83;5.80;;;7.90;99.90;;;;;;5074789;28;20048;-45
2022/01/03 06:21:52;;;;;;;31.55;5.22;;;7.90;99.90;;;;;;5061475;28;20120;-44
2022/01/03 06:24:19;;;;;;;40.03;5.53;;;7.80;99.90;;;;;;5062201;28;20667;-45
2022/01/03 06:26:46;;;;;;;37.30;6.28;;;7.90;99.90;;;;;;5075184;28;20113;-44
2022/01/03 06:29:14;;;;;;;47.15;5.95;;;9.20;99.90;;;;;;5077338;28;20045;-44
2022/01/03 06:31:41;;;;;;;50.38;7.00;;;7.90;99.90;;;;;;5071468;28;20043;-45
2022/01/03 06:34:07;;;;;;;39.83;5.22;;;8.00;99.90;;;;;;5066535;28;20131;-48
2022/01/03 06:36:33;;;;;;;40.58;5.72;;;7.90;99.90;;;;;;5072556;28;20123;-46
2022/01/03 06:38:59;;;;;;;39.25;5.97;;;7.80;99.90;;;;;;5076983;28;20032;-45
2022/01/03 06:41:26;;;;;;;28.42;5.05;;;7.90;99.90;;;;;;5068463;28;20833;-45
2022/01/03 06:43:52;;;;;;;34.08;5.78;;;7.90;99.90;;;;;;5078034;28;20036;-49
2022/01/03 06:46:18;;;;;;;31.55;5.45;;;7.70;99.90;;;;;;5082177;28;20043;-48
2022/01/03 06:48:45;;;;;;;32.28;5.50;;;7.80;99.90;;;;;;5070849;28;20119;-44
2022/01/03 06:51:15;;;;;;;34.85;4.90;;;7.90;99.90;;;;;;5060610;28;20054;-45
2022/01/03 06:53:41;;;;;;;41.65;6.20;;;8.10;99.90;;;;;;5077958;28;20048;-50
2022/01/03 06:56:07;;;;;;;37.72;5.28;;;7.80;99.90;;;;;;5081057;28;20440;-44
2022/01/03 06:58:33;;;;;;;35.10;6.05;;;7.90;99.90;;;;;;5063033;28;20044;-45
2022/01/03 07:01:01;;;;;;;36.90;5.35;;;7.80;99.90;;;;;;5061282;28;20051;-45
2022/01/03 07:03:29;;;;;;;39.47;5.20;;;7.90;99.90;;;;;;5061262;28;20084;-46
2022/01/03 07:05:55;;;;;;;42.35;6.05;;;7.90;99.90;;;;;;5074184;28;20472;-50
2022/01/03 07:08:21;;;;;;;36.53;5.38;;;8.50;99.90;;;;;;5070771;28;20036;-46
2022/01/03 07:10:50;;;;;;;34.90;4.90;;;7.70;99.90;;;;;;5069266;28;20066;-45
2022/01/03 07:13:17;;;;;;;39.30;5.95;;;8.40;99.90;;;;;;5080913;28;20048;-44
2022/01/03 07:21:15;;;;;;;36.95;5.80;;;8.00;99.90;;;;;;5065789;28;20187;-46
2022/01/03 07:23:43;;;;;;;32.70;5.70;;;7.80;99.90;;;;;;5075481;28;20066;-48
2022/01/03 07:26:09;;;;;;;36.13;5.57;;;7.80;99.90;;;;;;5081085;28;20044;-46
2022/01/03 07:28:35;;;;;;;33.30;4.75;;;7.70;99.90;;;;;;5082030;28;20027;-44
2022/01/03 07:31:01;;;;;;;42.28;5.65;;;7.70;99.90;;;;;;5085016;28;20044;-48
2022/01/03 07:33:26;;;;;;;42.05;6.35;;;7.80;99.90;;;;;;5070125;28;20066;-45
2022/01/03 07:35:52;;;;;;;40.03;6.82;;;7.80;99.90;;;;;;5068343;28;20044;-45
2022/01/03 07:38:18;;;;;;;40.00;6.90;;;7.70;99.90;;;;;;5081179;28;20515;-46
2022/01/03 07:40:44;;;;;;;38.70;5.60;;;7.80;99.90;;;;;;5075348;28;20037;-46
2022/01/03 07:43:10;;;;;;;36.22;6.93;;;7.80;99.90;;;;;;5084829;28;20032;-44
2022/01/03 07:45:35;;;;;;;37.42;5.43;;;7.70;99.90;;;;;;5085521;28;20071;-47
2022/01/03 07:48:01;;;;;;;33.97;6.35;;;7.90;99.90;;;;;;5074571;28;20513;-48
2022/01/03 07:50:28;;;;;;;34.63;5.50;;;7.90;99.90;;;;;;5079002;28;20063;-51
2022/01/03 07:52:54;;;;;;;40.30;7.25;;;8.00;99.90;;;;;;5084133;28;20048;-47
2022/01/03 07:55:19;;;;;;;34.58;4.88;;;8.00;99.90;;;;;;5070760;28;20044;-48
2022/01/03 07:57:46;;;;;;;43.63;7.10;;;8.00;99.90;;;;;;5075740;28;20032;-44
2022/01/03 08:00:14;;;;;;;35.97;5.95;;;8.10;99.90;;;;;;5084520;28;20035;-46
2022/01/03 08:02:41;;;;;;;33.10;5.28;;;8.10;99.90;;;;;;5082089;28;20107;-50
2022/01/03 08:05:08;;;;;;;33.58;5.70;;;8.10;99.90;;;;;;5065970;28;20502;-44
2022/01/03 08:07:35;;;;;;;35.88;5.50;;;8.10;99.90;;;;;;5084751;28;20519;-46
2022/01/03 08:10:04;;;;;;;35.88;4.72;;;8.10;99.90;;;;;;5083845;28;20048;-45
2022/01/03 08:12:29;;;;;;;39.05;5.93;;;8.20;99.90;;;;;;5082767;28;20169;-45
2022/01/03 08:14:55;;;;;;;31.15;5.90;;;8.00;99.90;;;;;;5076212;28;20708;-44
2022/01/03 08:17:21;;;;;;;37.72;5.40;;;8.30;99.90;;;;;;5081409;28;20032;-44
2022/01/03 08:19:46;;;;;;;30.95;4.55;;;7.90;99.90;;;;;;5064625;28;20109;-44
2022/01/03 08:22:14;;;;;;;49.38;9.05;;;8.30;99.90;;;;;;5075804;28;20040;-45
2022/01/03 08:24:40;;;;;;;29.33;5.03;;;8.30;99.90;;;;;;5084442;28;20043;-44
2022/01/03 08:27:06;;;;;;;35.28;5.18;;;8.20;99.90;;;;;;5075071;28;20036;-44
2022/01/03 08:29:31;;;;;;;34.45;5.82;;;8.20;99.90;;;;;;5076510;28;20040;-44
2022/01/03 08:31:57;;;;;;;37.47;5.30;;;8.30;99.90;;;;;;5080658;28;20043;-44
2022/01/03 08:34:23;;;;;;;37.22;6.18;;;8.20;99.90;;;;;;5064817;28;20088;-44
2022/01/03 08:36:50;;;;;;;37.80;6.88;;;8.40;99.90;;;;;;5084381;28;20090;-44
2022/01/03 08:39:16;;;;;;;26.52;4.55;;;8.30;99.90;;;;;;5072208;28;20527;-47
2022/01/03 08:41:42;;;;;;;32.13;5.47;;;9.70;99.90;;;;;;5076264;28;20071;-49
2022/01/03 08:44:08;;;;;;;27.23;4.72;;;8.60;99.90;;;;;;5067361;28;20036;-44
2022/01/03 08:46:33;;;;;;;32.65;5.38;;;8.50;99.90;;;;;;5070061;28;20055;-45
2022/01/03 08:48:59;;;;;;;35.72;6.45;;;8.60;99.90;;;;;;5082661;28;20040;-44
2022/01/03 08:51:28;;;;;;;38.40;6.22;;;8.60;99.90;;;;;;5068968;28;20070;-45
2022/01/03 08:53:53;;;;;;;27.63;4.18;;;8.60;99.90;;;;;;5072339;28;20049;-45
2022/01/03 08:56:19;;;;;;;34.97;4.95;;;8.70;99.90;;;;;;5080153;28;20085;-45
2022/01/03 08:58:45;;;;;;;32.78;4.80;;;8.70;99.90;;;;;;5072469;28;20044;-45
2022/01/03 09:01:11;;;;;;;33.17;4.93;;;8.70;99.90;;;;;;5062487;28;20685;-46
2022/01/03 09:03:37;;;;;;;36.05;5.90;;;8.70;99.90;;;;;;5072155;28;20031;-47
2022/01/03 09:06:03;;;;;;;31.45;6.05;;;8.90;99.90;;;;;;5071743;28;20489;-46
2022/01/03 09:08:29;;;;;;;29.70;5.13;;;8.70;99.90;;;;;;5068912;28;20051;-48
2022/01/03 09:10:56;;;;;;;41.45;6.82;;;8.80;99.90;;;;;;5063040;28;20040;-50
2022/01/03 09:13:23;;;;;;;27.75;4.68;;;8.80;99.90;;;;;;5073392;28;20120;-46
2022/01/03 09:15:50;;;;;;;39.28;6.05;;;8.80;99.90;;;;;;5080164;28;20055;-45
2022/01/03 09:18:20;;;;;;;28.15;4.85;;;8.90;99.90;;;;;;5073867;28;20587;-45
2022/01/03 09:20:46;;;;;;;33.20;5.82;;;8.90;99.90;;;;;;5079107;28;20048;-44
2022/01/03 09:23:21;;;;;;;32.88;5.22;;;8.70;99.90;;;;;;5066567;28;20199;-44
2022/01/03 09:28:49;;;;;;;28.77;4.53;;;8.90;99.90;;;;;;5070843;28;20089;-44
2022/01/03 09:31:34;;;;;;;37.13;5.40;;;9.00;99.90;;;;;;5071500;28;20080;-45
2022/01/03 09:34:02;;;;;;;31.80;5.00;;;8.90;99.90;;;;;;5060307;28;20045;-45
2022/01/03 09:36:30;;;;;;;28.75;5.68;;;8.80;99.90;;;;;;5079559;28;20493;-44
2022/01/03 09:38:55;;;;;;;28.05;4.47;;;9.00;99.90;;;;;;5075157;28;20044;-44
2022/01/03 09:41:24;;;;;;;39.13;5.15;;;10.60;99.90;;;;;;5064988;28;20459;-46
2022/01/03 09:43:57;;;;;;;29.10;4.85;;;9.10;99.90;;;;;;5069271;28;20044;-45
2022/01/03 09:46:25;;;;;;;37.67;6.13;;;8.90;99.90;;;;;;5074679;28;20166;-47
2022/01/03 09:48:53;;;;;;;31.33;4.70;;;10.10;99.90;;;;;;5074472;28;20032;-45
2022/01/03 09:51:23;;;;;;;37.03;4.30;;;9.00;99.90;;;;;;5070474;28;20039;-45
2022/01/03 09:53:52;;;;;;;29.42;5.93;;;8.90;99.90;;;;;;5067128;28;20054;-46
2022/01/03 09:56:18;;;;;;;36.75;6.50;;;9.10;99.90;;;;;;5082441;28;20539;-45
2022/01/03 09:58:45;;;;;;;35.53;5.90;;;9.30;99.90;;;;;;5083982;28;20055;-51
2022/01/03 10:01:13;;;;;;;39.67;7.55;;;9.40;99.90;;;;;;5073663;28;20074;-46
2022/01/03 10:03:41;;;;;;;41.53;6.22;;;9.30;99.90;;;;;;5071062;28;20041;-46
2022/01/03 10:06:09;;;;;;;33.05;6.13;;;9.10;99.90;;;;;;5070973;28;20047;-44
2022/01/03 10:08:35;;;;;;;36.30;5.32;;;9.80;99.90;;;;;;5081406;28;20401;-46
2022/01/03 10:11:01;;;;;;;26.23;4.40;;;9.20;99.90;;;;;;5073560;28;20036;-45
2022/01/03 10:13:26;;;;;;;25.55;5.30;;;9.70;99.90;;;;;;5070629;28;20072;-46
2022/01/03 10:15:52;;;;;;;28.45;5.13;;;10.00;99.90;;;;;;5074862;28;20043;-45
2022/01/03 10:18:21;;;;;;;34.65;5.03;;;9.50;99.90;;;;;;5075619;28;20042;-46
2022/01/03 10:20:47;;;;;;;32.65;5.82;;;10.00;99.90;;;;;;5070201;28;20062;-45
2022/01/03 10:23:16;;;;;;;32.90;5.55;;;9.90;99.90;;;;;;5076782;28;20047;-47
2022/01/03 10:25:42;;;;;;;40.20;7.05;;;9.80;99.90;;;;;;5066474;28;20493;-47
2022/01/03 10:28:09;;;;;;;30.33;5.03;;;9.70;99.90;;;;;;5073842;28;20361;-45
2022/01/03 10:30:40;;;;;;;29.45;6.25;;;9.90;99.90;;;;;;5069573;28;20595;-45
2022/01/03 10:33:13;;;;;;;33.42;4.15;;;9.80;99.90;;;;;;5072489;28;20614;-46
2022/01/03 10:35:44;;;;;;;37.75;7.07;;;9.90;99.90;;;;;;5074359;28;20531;-44
2022/01/03 10:38:14;;;;;;;39.85;7.18;;;9.70;99.90;;;;;;5062676;28;20486;-47
2022/01/03 10:40:40;;;;;;;31.40;5.75;;;10.70;99.90;;;;;;5073655;28;20153;-45
2022/01/03 10:43:15;;;;;;;37.78;6.40;;;9.70;99.90;;;;;;5067847;28;20666;-45
2022/01/03 10:45:42;;;;;;;36.60;5.50;;;10.90;99.90;;;;;;5074679;28;20037;-46
2022/01/03 10:48:30;;;;;;;29.58;4.95;;;9.50;99.90;;;;;;5075484;28;20110;-44
2022/01/03 10:50:57;;;;;;;24.55;4.80;;;9.60;99.90;;;;;;5066022;28;20570;-48
2022/01/03 10:53:43;;;;;;;33.30;5.03;;;9.80;99.90;;;;;;5068437;28;20035;-47
2022/01/03 10:56:32;;;;;;;26.15;4.15;;;9.50;99.90;;;;;;5072132;28;20056;-45
2022/01/03 10:59:01;;;;;;;30.75;5.30;;;9.40;99.90;;;;;;5069019;28;20119;-44
2022/01/03 11:01:28;;;;;;;31.92;5.15;;;9.50;99.90;;;;;;5078247;28;20046;-45
2022/01/03 11:03:58;;;;;;;28.23;5.28;;;9.60;99.90;;;;;;5067480;28;20434;-45
2022/01/03 11:11:58;;;;;;;27.67;4.28;;;9.60;99.90;;;;;;5012122;28;20095;-46
2022/01/03 11:14:39;;;;;;;31.17;6.07;;;9.40;99.90;;;;;;5018650;28;20835;-45
2022/01/03 11:17:22;;;;;;;32.83;4.95;;;9.30;99.90;;;;;;5005999;28;20034;-46
2022/01/03 11:19:49;;;;;;;26.77;4.57;;;9.40;99.90;;;;;;5006347;28;20136;-44
2022/01/03 11:22:41;;;;;;;29.55;5.15;;;10.30;99.90;;;;;;5006365;28;20528;-45
2022/01/03 11:25:08;;;;;;;22.10;4.90;;;9.40;99.90;;;;;;5011629;28;20045;-46
2022/01/03 11:27:38;;;;;;;27.67;4.13;;;10.00;99.90;;;;;;5019691;28;20211;-44
2022/01/03 11:30:05;;;;;;;27.38;5.05;;;9.40;99.90;;;;;;5012857;28;20049;-46
2022/01/03 11:32:34;;;;;;;27.27;4.22;;;9.50;99.90;;;;;;5014675;28;20092;-45
2022/01/03 11:35:00;;;;;;;31.80;5.97;;;9.50;99.90;;;;;;5005991;28;20085;-45
2022/01/03 11:37:32;;;;;;;28.45;5.47;;;10.20;99.90;;;;;;5016244;28;20061;-45
2022/01/03 11:40:00;;;;;;;24.92;4.28;;;9.70;99.90;;;;;;5011906;28;20617;-45
2022/01/03 11:42:26;;;;;;;23.80;3.70;;;9.60;99.90;;;;;;5010039;28;20391;-45
2022/01/03 11:44:52;;;;;;;25.35;3.70;;;10.80;99.90;;;;;;5018892;28;20054;-46
2022/01/03 11:47:21;;;;;;;24.38;3.80;;;9.80;99.90;;;;;;5065988;28;20060;-45
2022/01/03 11:49:47;;;;;;;28.55;4.20;;;9.80;99.90;;;;;;5072787;28;20139;-48
2022/01/03 11:52:15;;;;;;;26.42;4.05;;;9.80;99.90;;;;;;5071167;28;20486;-46
2022/01/03 11:54:43;;;;;;;29.83;5.35;;;9.70;99.90;;;;;;5065740;28;20060;-49
2022/01/03 11:57:22;;;;;;;21.35;3.63;;;10.00;99.90;;;;;;5073854;28;20757;-47
2022/01/03 12:05:54;;;;;;;23.23;4.10;;;9.60;99.90;;;;;;5071824;28;20052;-44
2022/01/03 12:08:34;;;;;;;22.92;4.63;;;10.80;99.90;;;;;;5082755;28;20123;-44
2022/01/03 12:11:21;;;;;;;26.73;4.95;;;9.80;99.90;;;;;;5072614;28;20048;-47
2022/01/03 12:14:08;;;;;;;22.75;4.97;;;9.80;99.90;;;;;;5085070;28;20524;-45
2022/01/03 12:16:40;;;;;;;30.58;4.72;;;9.80;99.90;;;;;;5062019;28;20036;-44
2022/01/03 12:19:07;;;;;;;24.50;4.22;;;10.90;99.90;;;;;;5065369;28;20128;-46
2022/01/03 12:21:53;;;;;;;27.40;4.00;;;9.80;99.90;;;;;;5080310;28;20390;-46
2022/01/03 12:24:42;;;;;;;21.23;3.15;;;9.80;99.90;;;;;;5071539;28;20048;-45
2022/01/03 12:27:33;;;;;;;29.02;3.90;;;9.90;99.90;;;;;;5070393;28;20044;-44
2022/01/03 12:30:02;;;;;;;34.80;4.72;;;10.10;99.90;;;;;;5016208;28;20099;-46
2022/01/03 12:32:40;;;;;;;34.60;5.00;;;10.10;99.90;;;;;;5014042;28;20576;-45
2022/01/03 12:35:18;;;;;;;25.10;4.60;;;10.70;99.90;;;;;;5016622;28;20038;-44
2022/01/03 12:37:52;;;;;;;28.65;4.53;;;10.00;99.90;;;;;;5017611;28;20056;-45
2022/01/03 12:40:21;;;;;;;29.02;4.65;;;11.20;99.90;;;;;;5019032;28;20070;-48
2022/01/03 12:42:51;;;;;;;35.72;5.70;;;10.00;99.90;;;;;;5013224;28;20056;-47
2022/01/03 12:45:37;;;;;;;24.90;4.43;;;11.20;99.90;;;;;;5009351;28;20533;-49
2022/01/03 12:48:08;;;;;;;21.35;3.40;;;10.20;99.90;;;;;;5006136;28;20449;-50
2022/01/03 12:51:09;;;;;;;36.95;5.28;;;10.10;99.90;;;;;;5020666;28;20469;-46
2022/01/03 12:53:34;;;;;;;24.60;4.22;;;10.30;99.90;;;;;;5006098;28;20061;-46
2022/01/03 12:56:08;;;;;;;27.33;4.53;;;10.10;99.90;;;;;;5017964;28;20041;-44
2022/01/03 12:58:33;;;;;;;39.15;6.50;;;10.20;99.90;;;;;;5016283;28;20069;-48
2022/01/03 13:01:13;;;;;;;31.67;7.13;;;12.00;99.90;;;;;;5017699;28;20430;-47
2022/01/03 13:03:39;;;;;;;34.25;4.75;;;10.20;99.90;;;;;;5011555;28;20346;-45
2022/01/03 13:06:24;;;;;;;26.33;4.50;;;10.80;99.90;;;;;;5014824;28;20041;-48
2022/01/03 13:08:56;;;;;;;26.17;4.80;;;10.10;99.90;;;;;;5099955;28;20048;-46
2022/01/03 13:11:33;;;;;;;31.33;5.78;;;10.00;99.90;;;;;;5072583;28;20347;-47
2022/01/03 13:14:21;;;;;;;23.63;5.15;;;10.50;99.90;;;;;;5075883;28;20032;-45
2022/01/03 13:16:58;;;;;;;25.25;4.82;;;10.00;99.90;;;;;;5062302;28;20048;-49
2022/01/03 13:19:30;;;;;;;28.33;4.30;;;9.90;99.90;;;;;;5061114;28;20040;-46